Terminal Aerodrome Forecast
Issued by NWS Shreveport, LA

Home | Current Version | Previous Version | Text Only | Print | Product List | Glossary On
Versions: 1 2 3 4 5 6 7 8 9 10 11 12 13 14 15 16 17 18 19 20 21
000
FTUS44 KSHV 231145
TAFTYR
TAF
KTYR 231145Z 2312/2412 13008KT P6SM SCT020 OVC030
      TEMPO 2312/2315 BKN020
     FM231500 13009KT P6SM VCSH BKN020 OVC035
     FM231800 14010KT P6SM VCTS BKN035CB OVC150
     FM232100 15011KT 5SM SHRA VCTS BKN040CB OVC100
     FM240300 13009KT 5SM BR VCSH OVC025=

USA.gov is the U.S. government's official web portal to all federal, state and local government web resources and services.